createdAt,value
2022-12-08T00:01:27.649Z,91.71
2022-12-08T00:03:55.484Z,91.95
2022-12-08T00:06:46.016Z,91.73
2022-12-08T00:09:39.374Z,90.65
2022-12-08T00:12:08.440Z,89.58
2022-12-08T00:14:38.701Z,89.84
2022-12-08T00:17:07.680Z,89.56
2022-12-08T00:19:34.519Z,89.63
2022-12-08T00:22:03.304Z,89.95
2022-12-08T00:24:32.923Z,90.86
2022-12-08T00:27:00.160Z,91.16
2022-12-08T00:29:27.249Z,91.41
2022-12-08T00:31:54.626Z,91.59
2022-12-08T00:34:21.570Z,91.29
2022-12-08T00:36:48.703Z,91.30
2022-12-08T00:39:17.217Z,91.51
2022-12-08T00:42:03.607Z,91.43
2022-12-08T00:44:30.451Z,91.20
2022-12-08T00:46:57.557Z,90.97
2022-12-08T00:49:24.716Z,91.00
2022-12-08T00:51:52.376Z,90.72
2022-12-08T00:54:19.661Z,89.16
2022-12-08T00:56:46.793Z,89.69
2022-12-08T00:59:13.816Z,90.37
2022-12-08T01:01:41.488Z,90.51
2022-12-08T01:04:11.359Z,90.96
2022-12-08T01:06:39.497Z,91.02
2022-12-08T01:09:07.821Z,91.16
2022-12-08T01:11:36.633Z,91.35
2022-12-08T01:14:03.796Z,91.20
2022-12-08T01:16:33.712Z,91.43
2022-12-08T01:19:02.011Z,91.53
2022-12-08T01:21:29.480Z,91.65
2022-12-08T01:23:58.001Z,91.53
2022-12-08T01:26:25.068Z,91.26
2022-12-08T01:29:11.794Z,91.54
2022-12-08T01:31:39.406Z,91.36
2022-12-08T01:34:07.215Z,91.50
2022-12-08T01:36:38.530Z,91.45
2022-12-08T01:39:14.242Z,91.56
2022-12-08T01:41:43.712Z,91.65
2022-12-08T01:44:13.325Z,91.53
2022-12-08T01:46:42.620Z,91.87
2022-12-08T01:49:18.506Z,91.29
2022-12-08T01:51:54.437Z,91.35
2022-12-08T01:54:26.288Z,91.05
2022-12-08T01:57:08.737Z,90.77
2022-12-08T01:59:42.065Z,90.73
2022-12-08T02:02:11.556Z,90.35
2022-12-08T02:04:38.907Z,89.71
2022-12-08T02:07:08.600Z,89.44
2022-12-08T02:09:38.483Z,88.99
2022-12-08T02:12:05.871Z,89.22
2022-12-08T02:14:34.289Z,89.08
2022-12-08T02:17:07.702Z,89.24
2022-12-08T02:19:59.569Z,89.41
2022-12-08T02:22:32.337Z,88.64
2022-12-08T02:25:12.370Z,88.75
2022-12-08T02:28:11.621Z,89.02
2022-12-08T02:31:01.320Z,88.89
2022-12-08T02:33:40.239Z,88.81
2022-12-08T02:36:24.388Z,89.18
2022-12-08T02:39:11.431Z,89.25
2022-12-08T02:42:01.399Z,89.43
2022-12-08T02:44:53.004Z,88.52
2022-12-08T02:47:23.755Z,88.71
2022-12-08T02:49:50.884Z,89.13
2022-12-08T02:52:17.679Z,89.30
2022-12-08T02:54:50.689Z,89.39
2022-12-08T02:57:38.043Z,89.44
2022-12-08T03:00:17.851Z,88.97
2022-12-08T03:02:47.453Z,89.07
2022-12-08T03:05:57.576Z,89.38
2022-12-08T03:08:50.437Z,89.02
2022-12-08T03:11:42.142Z,88.83
2022-12-08T03:14:12.138Z,88.74
2022-12-08T03:16:43.617Z,88.88
2022-12-08T03:19:18.618Z,89.06
2022-12-08T03:21:51.735Z,89.51
2022-12-08T03:24:22.008Z,89.56
2022-12-08T03:26:59.675Z,89.82
2022-12-08T03:29:26.668Z,90.15
2022-12-08T03:31:59.978Z,90.09
2022-12-08T03:34:29.861Z,89.38
2022-12-08T03:36:57.283Z,89.41
2022-12-08T03:39:24.454Z,89.70
2022-12-08T03:41:51.607Z,89.71
2022-12-08T03:44:18.416Z,89.96
2022-12-08T03:46:45.979Z,90.01
2022-12-08T03:49:12.786Z,90.04
2022-12-08T03:51:39.993Z,90.14
2022-12-08T03:54:06.830Z,90.34
2022-12-08T03:56:37.113Z,90.45
2022-12-08T03:59:05.546Z,90.53
2022-12-08T04:01:32.719Z,91.28
2022-12-08T04:03:59.723Z,91.38
2022-12-08T04:06:26.892Z,91.43
2022-12-08T04:08:53.822Z,91.46
2022-12-08T04:11:21.243Z,91.79
2022-12-08T04:13:48.479Z,91.83
2022-12-08T04:16:21.413Z,91.98
2022-12-08T04:18:48.889Z,91.90
2022-12-08T04:21:16.547Z,91.67
2022-12-08T04:23:43.729Z,91.81
2022-12-08T04:26:10.911Z,92.03
2022-12-08T04:28:38.139Z,91.95
2022-12-08T04:31:05.425Z,91.68
2022-12-08T04:33:32.467Z,91.35
2022-12-08T04:35:59.715Z,91.38
2022-12-08T04:38:26.557Z,91.21
2022-12-08T04:40:53.794Z,90.48
2022-12-08T04:43:20.745Z,90.37
2022-12-08T04:45:48.121Z,90.25
2022-12-08T04:48:15.347Z,90.15
2022-12-08T04:50:44.878Z,89.68
2022-12-08T04:53:12.653Z,89.74
2022-12-08T04:55:41.323Z,89.29
2022-12-08T04:58:08.248Z,87.80
2022-12-08T05:00:35.337Z,87.89
2022-12-08T05:03:02.244Z,88.39
2022-12-08T05:05:29.357Z,87.81
2022-12-08T05:07:56.303Z,87.68
2022-12-08T05:10:23.830Z,87.82
2022-12-08T05:12:50.748Z,87.56
2022-12-08T05:15:18.068Z,88.28
2022-12-08T05:17:44.870Z,88.80
2022-12-08T05:20:12.314Z,89.20
2022-12-08T05:22:39.137Z,89.36
2022-12-08T05:25:06.490Z,89.75
2022-12-08T05:27:33.361Z,90.17
2022-12-08T05:30:00.434Z,90.58
2022-12-08T05:32:27.322Z,90.79
2022-12-08T05:34:54.445Z,91.05
2022-12-08T05:37:21.339Z,90.71
2022-12-08T05:39:48.476Z,90.88
2022-12-08T05:42:18.353Z,90.76
2022-12-08T05:44:48.939Z,90.95
2022-12-08T05:47:15.753Z,91.41
2022-12-08T05:49:42.887Z,91.13
2022-12-08T05:52:10.003Z,91.31
2022-12-08T05:54:37.360Z,91.60
2022-12-08T05:57:04.176Z,91.79
2022-12-08T05:59:31.304Z,92.06
2022-12-08T06:01:58.280Z,91.81
2022-12-08T06:04:25.551Z,91.99
2022-12-08T06:06:52.479Z,91.94
2022-12-08T06:09:19.579Z,91.96
2022-12-08T06:11:47.319Z,91.68
2022-12-08T06:14:14.617Z,91.55
2022-12-08T06:16:41.559Z,91.29
2022-12-08T06:19:08.768Z,90.53
2022-12-08T06:21:35.632Z,90.87
2022-12-08T06:24:02.849Z,90.28
2022-12-08T06:26:29.770Z,90.50
2022-12-08T06:28:56.893Z,90.45
2022-12-08T06:31:25.860Z,89.76
2022-12-08T06:33:54.821Z,89.56
2022-12-08T06:36:25.254Z,89.78
2022-12-08T06:38:52.819Z,89.38
2022-12-08T06:41:19.821Z,89.34
2022-12-08T06:43:47.209Z,89.72
2022-12-08T06:46:17.635Z,89.74
2022-12-08T06:48:45.472Z,89.04
2022-12-08T06:51:17.865Z,89.02
2022-12-08T06:53:46.644Z,89.05
2022-12-08T06:56:15.930Z,89.48
2022-12-08T06:58:46.169Z,89.51
2022-12-08T07:01:17.540Z,89.90
2022-12-08T07:03:44.787Z,89.96
2022-12-08T07:06:24.020Z,90.22
2022-12-08T07:08:51.374Z,90.29
2022-12-08T07:11:21.863Z,90.47
2022-12-08T07:13:49.899Z,90.89
2022-12-08T07:16:16.852Z,90.45
2022-12-08T07:18:44.224Z,90.30
2022-12-08T07:21:13.319Z,90.25
2022-12-08T07:23:41.776Z,90.50
2022-12-08T07:26:11.337Z,90.47
2022-12-08T07:28:40.677Z,90.20
2022-12-08T07:31:15.998Z,90.23
2022-12-08T07:33:43.318Z,90.64
2022-12-08T07:36:10.453Z,90.24
2022-12-08T07:38:37.673Z,90.44
2022-12-08T07:41:04.818Z,90.67
2022-12-08T07:43:31.987Z,90.63
2022-12-08T07:45:58.973Z,90.67
2022-12-08T07:48:26.144Z,90.27
2022-12-08T07:51:00.450Z,90.28
2022-12-08T07:53:27.583Z,90.03
2022-12-08T07:55:54.449Z,89.87
2022-12-08T07:58:21.619Z,89.68
2022-12-08T08:00:48.527Z,89.38
2022-12-08T08:03:16.000Z,89.19
2022-12-08T08:05:44.158Z,88.94
2022-12-08T08:08:11.499Z,88.90
2022-12-08T08:10:38.379Z,88.80
2022-12-08T08:13:05.637Z,88.98
2022-12-08T08:15:32.544Z,89.14
2022-12-08T08:17:59.899Z,88.60
2022-12-08T08:20:27.095Z,88.32
2022-12-08T08:22:54.298Z,87.95
2022-12-08T08:25:24.695Z,87.59
2022-12-08T08:27:52.128Z,87.83
2022-12-08T08:30:20.983Z,87.68
2022-12-08T08:32:49.544Z,87.85
2022-12-08T08:35:16.813Z,87.40
2022-12-08T08:37:48.562Z,87.78
2022-12-08T08:40:17.379Z,88.16
2022-12-08T08:42:44.544Z,88.36
2022-12-08T08:45:11.636Z,88.18
2022-12-08T08:47:38.904Z,87.92
2022-12-08T08:50:06.821Z,88.22
2022-12-08T08:52:34.136Z,88.16
2022-12-08T08:55:00.972Z,88.45
2022-12-08T08:57:28.179Z,88.25
2022-12-08T08:59:55.265Z,87.54
2022-12-08T09:02:22.846Z,87.79
2022-12-08T09:04:50.074Z,87.46
2022-12-08T09:07:17.355Z,86.99
2022-12-08T09:09:44.238Z,87.38
2022-12-08T09:12:12.132Z,87.01
2022-12-08T09:14:39.202Z,86.96
2022-12-08T09:17:07.207Z,86.00
2022-12-08T09:19:34.958Z,86.32
2022-12-08T09:22:02.119Z,86.36
2022-12-08T09:24:29.020Z,86.55
2022-12-08T09:26:56.173Z,86.65
2022-12-08T09:29:23.019Z,86.76
2022-12-08T09:31:50.194Z,86.56
2022-12-08T09:34:17.158Z,86.73
2022-12-08T09:36:44.270Z,86.56
2022-12-08T09:39:11.150Z,86.83
2022-12-08T09:41:48.270Z,86.89
2022-12-08T09:44:38.773Z,86.56
2022-12-08T09:47:29.491Z,86.57
2022-12-08T09:50:11.290Z,86.61
2022-12-08T09:52:44.172Z,86.56
2022-12-08T09:55:24.563Z,86.52
2022-12-08T09:58:00.547Z,86.94
2022-12-08T10:00:27.789Z,86.53
2022-12-08T10:02:57.353Z,86.68
2022-12-08T10:05:26.289Z,86.07
2022-12-08T10:08:06.255Z,85.52
2022-12-08T10:10:42.120Z,85.86
2022-12-08T10:13:35.438Z,85.34
2022-12-08T10:16:29.699Z,86.12
2022-12-08T10:19:23.258Z,86.45
2022-12-08T10:21:53.110Z,86.42
2022-12-08T10:24:26.085Z,86.67
2022-12-08T10:26:55.314Z,86.97
2022-12-08T10:29:22.318Z,86.67
2022-12-08T10:31:49.652Z,86.55
2022-12-08T10:34:20.447Z,87.29
2022-12-08T10:36:56.345Z,86.93
2022-12-08T10:39:46.875Z,87.33
2022-12-08T10:42:14.251Z,87.28
2022-12-08T10:45:02.906Z,86.89
2022-12-08T10:47:35.315Z,86.93
2022-12-08T10:50:19.578Z,87.09
2022-12-08T10:52:55.161Z,87.10
2022-12-08T10:55:23.409Z,87.24
2022-12-08T10:57:50.649Z,87.46
2022-12-08T11:00:24.575Z,87.31
2022-12-08T11:02:53.400Z,86.29
2022-12-08T11:05:22.878Z,86.73
2022-12-08T11:07:52.777Z,87.36
2022-12-08T11:10:27.084Z,87.55
2022-12-08T11:12:55.302Z,87.80
2022-12-08T11:15:22.123Z,87.73
2022-12-08T11:18:00.959Z,87.57
2022-12-08T11:20:27.976Z,87.56
2022-12-08T11:22:56.607Z,87.63
2022-12-08T11:25:25.709Z,87.22
2022-12-08T11:28:01.813Z,86.70
2022-12-08T11:30:37.738Z,86.90
2022-12-08T11:33:19.454Z,86.74
2022-12-08T11:35:51.838Z,86.94
2022-12-08T11:38:22.771Z,86.01
2022-12-08T11:41:16.906Z,86.18
2022-12-08T11:44:06.933Z,85.65
2022-12-08T11:46:46.375Z,86.38
2022-12-08T11:49:14.687Z,85.62
2022-12-08T11:51:53.368Z,85.01
2022-12-08T11:54:35.140Z,85.70
2022-12-08T11:57:05.801Z,86.44
2022-12-08T11:59:38.390Z,87.29
2022-12-08T12:02:11.490Z,87.59
2022-12-08T12:05:02.803Z,88.49
2022-12-08T12:07:58.693Z,88.66
2022-12-08T12:10:31.893Z,89.10
2022-12-08T12:13:20.282Z,89.90
2022-12-08T12:16:05.528Z,89.84
2022-12-08T12:18:45.187Z,90.17
2022-12-08T12:21:28.136Z,90.25
2022-12-08T12:24:00.537Z,90.21
2022-12-08T12:26:37.201Z,89.84
2022-12-08T12:29:09.093Z,90.69
2022-12-08T12:31:41.653Z,90.24
2022-12-08T12:34:16.934Z,90.28
2022-12-08T12:37:03.304Z,90.52
2022-12-08T12:39:34.208Z,90.25
2022-12-08T12:42:04.664Z,90.30
2022-12-08T12:44:34.500Z,90.45
2022-12-08T12:47:04.339Z,90.77
2022-12-08T12:49:40.459Z,90.69
2022-12-08T12:52:10.326Z,91.02
2022-12-08T12:54:42.678Z,91.10
2022-12-08T12:57:09.863Z,90.97
2022-12-08T12:59:45.502Z,91.32
2022-12-08T13:02:36.083Z,91.13
2022-12-08T13:05:22.747Z,90.79
2022-12-08T13:08:01.059Z,90.67
2022-12-08T13:10:37.427Z,91.02
2022-12-08T13:13:24.953Z,90.37
2022-12-08T13:15:55.216Z,91.02
2022-12-08T13:18:46.456Z,91.36
2022-12-08T13:21:16.063Z,91.43
2022-12-08T13:23:48.982Z,91.41
2022-12-08T13:26:23.672Z,91.32
2022-12-08T13:29:01.246Z,91.57
2022-12-08T13:31:48.318Z,92.01
2022-12-08T13:34:20.323Z,92.07
2022-12-08T13:37:11.689Z,92.24
2022-12-08T13:39:38.852Z,92.37
2022-12-08T13:42:33.760Z,92.28
2022-12-08T13:45:33.965Z,92.71
2022-12-08T13:48:26.983Z,92.97
2022-12-08T13:57:26.536Z,92.87
2022-12-08T13:59:53.440Z,93.16
2022-12-08T14:02:30.178Z,93.47
2022-12-08T14:07:46.423Z,93.83
2022-12-08T14:10:19.595Z,93.77
2022-12-08T14:12:52.273Z,94.40
2022-12-08T14:15:19.480Z,94.36
2022-12-08T14:17:54.970Z,94.80
2022-12-08T14:20:30.362Z,94.60
2022-12-08T14:22:59.661Z,94.96
2022-12-08T14:25:30.143Z,95.07
2022-12-08T14:28:03.133Z,95.04
2022-12-08T14:30:34.710Z,95.31
2022-12-08T14:33:04.397Z,95.42
2022-12-08T14:35:37.057Z,95.61
2022-12-08T14:38:14.970Z,95.92
2022-12-08T14:40:53.834Z,95.93
2022-12-08T14:43:27.054Z,95.95
2022-12-08T14:45:58.265Z,96.15
2022-12-08T14:48:27.028Z,96.28
2022-12-08T14:51:03.206Z,96.03
2022-12-08T14:53:38.197Z,95.68
2022-12-08T14:56:18.013Z,95.45
2022-12-08T14:58:45.668Z,95.62
2022-12-08T15:01:17.024Z,95.78
2022-12-08T15:03:50.379Z,96.10
2022-12-08T15:06:20.896Z,96.04
2022-12-08T15:08:58.847Z,95.88
2022-12-08T15:11:34.968Z,95.87
2022-12-08T15:14:03.051Z,96.14
2022-12-08T15:16:43.478Z,95.85
2022-12-08T15:19:24.451Z,95.77
2022-12-08T15:21:51.402Z,96.14
2022-12-08T15:24:19.880Z,96.25
2022-12-08T15:26:49.941Z,96.40
2022-12-08T15:29:29.511Z,96.17
2022-12-08T15:32:01.612Z,96.28
2022-12-08T15:34:31.639Z,96.65
2022-12-08T15:36:58.538Z,96.38
2022-12-08T15:39:34.868Z,96.32
2022-12-08T15:42:03.188Z,96.38
2022-12-08T15:44:32.809Z,96.41
2022-12-08T15:47:00.799Z,96.04
2022-12-08T15:49:28.109Z,96.31
2022-12-08T15:52:04.941Z,96.40
2022-12-08T15:54:37.698Z,96.62
2022-12-08T15:57:19.459Z,96.83
2022-12-08T15:59:50.410Z,96.68
2022-12-08T16:02:22.353Z,96.94
2022-12-08T16:07:38.264Z,96.59
2022-12-08T16:10:08.012Z,96.52
2022-12-08T16:15:59.127Z,96.67
2022-12-08T16:18:29.982Z,96.54
2022-12-08T16:21:31.597Z,96.34
2022-12-08T16:23:45.477Z,96.49
2022-12-08T16:26:28.359Z,96.61
2022-12-08T16:28:55.792Z,96.26
2022-12-08T16:31:23.527Z,96.26
2022-12-08T16:33:50.471Z,95.91
2022-12-08T16:36:17.962Z,95.69
2022-12-08T16:38:44.901Z,95.50
2022-12-08T16:41:35.132Z,95.50
2022-12-08T16:44:03.889Z,95.60
2022-12-08T16:46:31.681Z,94.98
2022-12-08T16:48:59.135Z,94.86
2022-12-08T16:51:27.545Z,94.58
2022-12-08T16:53:57.158Z,94.04
2022-12-08T16:56:30.631Z,93.57
2022-12-08T16:58:59.949Z,93.64
2022-12-08T17:01:27.824Z,93.64
2022-12-08T17:06:42.682Z,93.43
2022-12-08T17:09:09.728Z,93.66
2022-12-08T17:11:42.933Z,93.48
2022-12-08T17:14:13.092Z,93.29
2022-12-08T17:16:41.475Z,93.37
2022-12-08T17:19:08.983Z,93.29
2022-12-08T17:21:36.944Z,92.41
2022-12-08T17:24:04.853Z,91.96
2022-12-08T17:26:32.080Z,91.79
2022-12-08T17:29:00.959Z,91.07
2022-12-08T17:31:31.236Z,91.17
2022-12-08T17:34:03.057Z,91.38
2022-12-08T17:36:31.213Z,90.60
2022-12-08T17:38:59.837Z,90.43
2022-12-08T17:41:27.178Z,90.63
2022-12-08T17:43:54.133Z,89.31
2022-12-08T17:46:22.899Z,89.61
2022-12-08T17:48:50.227Z,89.70
2022-12-08T17:51:17.544Z,89.69
2022-12-08T17:53:44.629Z,90.06
2022-12-08T17:56:21.390Z,90.27
2022-12-08T17:58:54.214Z,90.25
2022-12-08T18:01:41.037Z,89.73
2022-12-08T18:04:09.969Z,89.87
2022-12-08T18:06:38.129Z,90.06
2022-12-08T18:09:07.854Z,90.12
2022-12-08T18:11:35.690Z,89.80
2022-12-08T18:14:10.148Z,89.79
2022-12-08T18:16:39.874Z,89.52
2022-12-08T18:19:07.867Z,89.27
2022-12-08T18:21:35.705Z,89.60
2022-12-08T18:24:04.234Z,89.57
2022-12-08T18:26:31.183Z,90.02
2022-12-08T18:28:58.565Z,89.79
2022-12-08T18:31:25.789Z,89.71
2022-12-08T18:33:53.196Z,89.84
2022-12-08T18:36:23.993Z,89.50
2022-12-08T18:38:52.483Z,89.87
2022-12-08T18:41:26.249Z,89.70
2022-12-08T18:43:55.279Z,89.81
2022-12-08T18:46:22.420Z,89.51
2022-12-08T18:48:51.402Z,89.44
2022-12-08T18:51:21.264Z,89.72
2022-12-08T18:53:49.207Z,89.67
2022-12-08T18:56:28.482Z,89.77
2022-12-08T18:59:02.795Z,90.18
2022-12-08T19:01:32.115Z,90.31
2022-12-08T19:06:47.470Z,90.52
2022-12-08T19:09:15.923Z,90.50
2022-12-08T19:11:43.255Z,90.45
2022-12-08T19:14:11.535Z,90.79
2022-12-08T19:16:38.466Z,90.80
2022-12-08T19:19:06.192Z,90.99
2022-12-08T19:21:33.254Z,91.80
2022-12-08T19:24:00.486Z,91.57
2022-12-08T19:26:28.289Z,91.78
2022-12-08T19:28:56.230Z,92.04
2022-12-08T19:31:23.173Z,92.13
2022-12-08T19:33:50.518Z,92.33
2022-12-08T19:36:20.922Z,92.89
2022-12-08T19:39:06.887Z,93.00
2022-12-08T19:41:52.332Z,93.21
2022-12-08T19:44:34.068Z,93.08
2022-12-08T19:47:01.615Z,93.46
2022-12-08T19:49:28.951Z,93.87
2022-12-08T19:51:56.219Z,94.00
2022-12-08T19:54:24.111Z,94.12
2022-12-08T19:56:51.443Z,94.64
2022-12-08T19:59:19.291Z,94.39
2022-12-08T20:01:48.459Z,94.44
2022-12-08T20:04:16.610Z,94.62
2022-12-08T20:06:44.527Z,94.66
2022-12-08T20:09:12.962Z,94.80
2022-12-08T20:11:40.755Z,94.83
2022-12-08T20:14:08.414Z,94.86
2022-12-08T20:16:35.717Z,95.06
2022-12-08T20:19:02.985Z,95.51
2022-12-08T20:21:30.095Z,95.91
2022-12-08T20:23:57.314Z,95.71
2022-12-08T20:26:24.222Z,95.62
2022-12-08T20:28:51.628Z,95.82
2022-12-08T20:31:20.319Z,95.83
2022-12-08T20:33:47.926Z,95.89
2022-12-08T20:36:18.746Z,96.13
2022-12-08T20:38:47.929Z,96.35
2022-12-08T20:41:16.179Z,96.42
2022-12-08T20:43:44.614Z,97.08
2022-12-08T20:46:14.313Z,96.94
2022-12-08T20:48:42.313Z,97.09
2022-12-08T20:51:12.813Z,97.11
2022-12-08T20:53:40.010Z,97.16
2022-12-08T20:56:07.417Z,97.38
2022-12-08T20:58:34.739Z,97.10
2022-12-08T21:01:01.862Z,97.48
2022-12-08T21:03:29.210Z,97.41
2022-12-08T21:05:56.815Z,97.78
2022-12-08T21:08:26.059Z,98.03
2022-12-08T21:10:54.500Z,98.09
2022-12-08T21:13:21.840Z,98.10
2022-12-08T21:15:49.040Z,98.18
2022-12-08T21:18:17.025Z,98.33
2022-12-08T21:20:44.210Z,98.33
2022-12-08T21:23:12.048Z,98.96
2022-12-08T21:25:43.655Z,98.95
2022-12-08T21:28:11.473Z,98.85
2022-12-08T21:30:40.204Z,99.05
2022-12-08T21:33:07.708Z,99.00
2022-12-08T21:35:34.881Z,98.96
2022-12-08T21:38:02.190Z,99.51
2022-12-08T21:40:29.068Z,99.49
2022-12-08T21:42:56.416Z,99.55
2022-12-08T21:45:23.344Z,99.49
2022-12-08T21:47:50.741Z,99.74
2022-12-08T21:50:18.532Z,99.63
2022-12-08T21:52:47.925Z,99.55
2022-12-08T21:55:16.430Z,99.63
2022-12-08T21:58:02.282Z,99.87
2022-12-08T22:00:29.852Z,100.00
2022-12-08T22:02:58.072Z,100.00
2022-12-08T22:05:25.510Z,100.00
2022-12-08T22:07:52.373Z,100.00
2022-12-08T22:10:21.130Z,100.00
2022-12-08T22:12:48.347Z,100.00
2022-12-08T22:15:15.800Z,100.00
2022-12-08T22:17:43.936Z,100.00
2022-12-08T22:20:13.692Z,100.00
2022-12-08T22:22:41.350Z,100.00
2022-12-08T22:25:12.611Z,100.00
2022-12-08T22:27:41.046Z,100.00
2022-12-08T22:30:09.605Z,100.00
2022-12-08T22:32:37.186Z,100.00
2022-12-08T22:35:04.631Z,100.00
2022-12-08T22:37:31.630Z,100.00
2022-12-08T22:39:58.914Z,100.00
2022-12-08T22:42:26.609Z,100.00
2022-12-08T22:44:53.831Z,100.00
2022-12-08T22:47:20.805Z,100.00
2022-12-08T22:49:48.474Z,100.00
2022-12-08T22:52:15.384Z,100.00
2022-12-08T22:54:42.518Z,100.00
2022-12-08T22:57:09.424Z,100.00
2022-12-08T22:59:54.994Z,100.00
2022-12-08T23:02:22.077Z,100.00
2022-12-08T23:04:49.020Z,100.00
2022-12-08T23:07:16.572Z,100.00
2022-12-08T23:09:43.587Z,100.00
2022-12-08T23:12:10.673Z,100.00
2022-12-08T23:14:37.524Z,100.00
2022-12-08T23:17:04.935Z,100.00
2022-12-08T23:19:31.969Z,100.00
2022-12-08T23:21:59.222Z,100.00
2022-12-08T23:24:26.036Z,100.00
2022-12-08T23:26:53.156Z,100.00
2022-12-08T23:29:20.254Z,100.00
2022-12-08T23:31:47.709Z,100.00
2022-12-08T23:34:14.850Z,100.00
2022-12-08T23:36:42.133Z,100.00
2022-12-08T23:39:11.032Z,100.00
2022-12-08T23:41:38.303Z,100.00
2022-12-08T23:44:05.317Z,100.00
2022-12-08T23:46:32.757Z,100.00
2022-12-08T23:48:59.823Z,100.00
2022-12-08T23:51:27.567Z,100.00
2022-12-08T23:53:54.730Z,100.00
2022-12-08T23:56:24.363Z,100.00
2022-12-08T23:58:53.943Z,100.00
